createdAt,value
2023-04-02T00:01:46.812Z,4.20
2023-04-02T00:04:22.332Z,4.10
2023-04-02T00:06:54.472Z,3.90
2023-04-02T00:09:33.153Z,3.80
2023-04-02T00:12:15.437Z,3.70
2023-04-02T00:14:47.328Z,3.70
2023-04-02T00:17:14.483Z,3.70
2023-04-02T00:20:02.511Z,3.80
2023-04-02T00:22:34.238Z,3.80
2023-04-02T00:25:07.758Z,3.80
2023-04-02T00:27:35.956Z,3.90
2023-04-02T00:30:04.217Z,3.90
2023-04-02T00:32:36.354Z,4.00
2023-04-02T00:35:04.824Z,4.00
2023-04-02T00:37:39.299Z,4.00
2023-04-02T00:40:25.598Z,4.00
2023-04-02T00:42:55.054Z,4.00
2023-04-02T00:45:30.800Z,4.10
2023-04-02T00:48:24.472Z,4.10
2023-04-02T00:50:53.342Z,4.10
2023-04-02T00:53:27.571Z,4.10
2023-04-02T00:55:56.021Z,4.10
2023-04-02T00:58:29.949Z,4.10
2023-04-02T01:00:58.469Z,4.10
2023-04-02T01:03:36.338Z,4.10
2023-04-02T01:06:14.299Z,4.10
2023-04-02T01:09:18.351Z,4.10
2023-04-02T01:12:11.823Z,4.10
2023-04-02T01:15:00.338Z,4.10
2023-04-02T01:17:43.045Z,4.00
2023-04-02T01:20:28.322Z,4.00
2023-04-02T01:22:58.096Z,4.00
2023-04-02T01:25:34.776Z,3.90
2023-04-02T01:28:19.389Z,3.90
2023-04-02T01:30:57.596Z,3.80
2023-04-02T01:33:28.879Z,3.80
2023-04-02T01:36:26.218Z,3.70
2023-04-02T01:39:33.111Z,3.70
2023-04-02T01:42:20.043Z,3.60
2023-04-02T01:44:48.621Z,3.60
2023-04-02T01:47:19.183Z,3.60
2023-04-02T01:49:47.240Z,3.60
2023-04-02T01:52:19.528Z,3.60
2023-04-02T01:54:47.771Z,3.60
2023-04-02T01:57:15.937Z,3.60
2023-04-02T01:59:43.462Z,3.70
2023-04-02T02:02:13.536Z,3.70
2023-04-02T02:04:41.940Z,3.60
2023-04-02T02:07:19.361Z,3.60
2023-04-02T02:09:51.098Z,3.60
2023-04-02T02:12:18.205Z,3.60
2023-04-02T02:14:50.459Z,3.50
2023-04-02T02:17:24.070Z,3.50
2023-04-02T02:19:55.146Z,3.50
2023-04-02T02:22:35.163Z,3.60
2023-04-02T02:25:05.811Z,3.50
2023-04-02T02:28:15.606Z,3.60
2023-04-02T02:30:47.273Z,3.60
2023-04-02T02:33:25.993Z,3.60
2023-04-02T02:36:02.303Z,3.60
2023-04-02T02:38:40.761Z,3.50
2023-04-02T02:41:24.587Z,3.50
2023-04-02T02:44:17.612Z,3.40
2023-04-02T02:46:54.594Z,3.40
2023-04-02T02:49:26.917Z,3.40
2023-04-02T02:51:58.893Z,3.40
2023-04-02T02:54:34.747Z,3.50
2023-04-02T02:57:06.061Z,3.40
2023-04-02T02:59:33.872Z,3.40
2023-04-02T03:02:06.910Z,3.40
2023-04-02T03:04:37.185Z,3.40
2023-04-02T03:07:09.796Z,3.40
2023-04-02T03:09:58.989Z,3.40
2023-04-02T03:12:47.213Z,3.40
2023-04-02T03:15:18.783Z,3.30
2023-04-02T03:18:01.537Z,3.40
2023-04-02T03:20:36.385Z,3.30
2023-04-02T03:23:26.146Z,3.40
2023-04-02T03:26:06.709Z,3.40
2023-04-02T03:28:39.195Z,3.40
2023-04-02T03:31:13.506Z,3.40
2023-04-02T03:33:45.580Z,3.40
2023-04-02T03:36:15.661Z,3.40
2023-04-02T03:38:46.963Z,3.40
2023-04-02T03:41:22.940Z,3.40
2023-04-02T03:44:03.265Z,3.40
2023-04-02T03:46:39.467Z,3.40
2023-04-02T03:49:13.107Z,3.40
2023-04-02T03:51:57.440Z,3.40
2023-04-02T03:54:24.413Z,3.40
2023-04-02T03:56:53.257Z,3.40
2023-04-02T03:59:47.499Z,3.40
2023-04-02T04:02:40.578Z,3.30
2023-04-02T04:05:21.384Z,3.30
2023-04-02T04:07:52.858Z,3.30
2023-04-02T04:10:25.320Z,3.30
2023-04-02T04:12:56.120Z,3.30
2023-04-02T04:15:31.084Z,3.30
2023-04-02T04:18:35.103Z,3.40
2023-04-02T04:21:29.923Z,3.40
2023-04-02T04:24:04.797Z,3.40
2023-04-02T04:26:42.484Z,3.40
2023-04-02T04:29:40.846Z,3.40
2023-04-02T04:32:32.009Z,3.40
2023-04-02T04:35:08.163Z,3.50
2023-04-02T04:37:39.544Z,3.50
2023-04-02T04:40:22.487Z,3.50
2023-04-02T04:42:55.658Z,3.50
2023-04-02T04:45:43.743Z,3.50
2023-04-02T04:48:26.710Z,3.50
2023-04-02T04:51:01.653Z,3.50
2023-04-02T04:53:30.671Z,3.50
2023-04-02T04:56:16.048Z,3.50
2023-04-02T04:58:57.053Z,3.50
2023-04-02T05:02:00.010Z,3.50
2023-04-02T05:04:37.998Z,3.60
2023-04-02T05:07:21.294Z,3.60
2023-04-02T05:10:13.554Z,3.60
2023-04-02T05:13:05.075Z,3.60
2023-04-02T05:15:50.584Z,3.70
2023-04-02T05:18:22.923Z,3.70
2023-04-02T05:21:07.118Z,3.70
2023-04-02T05:23:43.346Z,3.80
2023-04-02T05:26:21.980Z,3.80
2023-04-02T05:29:17.486Z,3.80
2023-04-02T05:31:57.867Z,3.80
2023-04-02T05:34:29.878Z,3.80
2023-04-02T05:36:58.486Z,3.90
2023-04-02T05:39:27.731Z,3.90
2023-04-02T05:42:08.398Z,3.90
2023-04-02T05:45:08.756Z,3.90
2023-04-02T05:47:41.027Z,4.00
2023-04-02T05:50:21.875Z,4.00
2023-04-02T05:53:06.993Z,4.10
2023-04-02T05:55:39.945Z,4.20
2023-04-02T05:58:36.712Z,4.20
2023-04-02T06:01:53.310Z,4.20
2023-04-02T06:04:36.163Z,4.30
2023-04-02T06:07:21.757Z,4.30
2023-04-02T06:10:10.186Z,4.40
2023-04-02T06:12:47.142Z,4.40
2023-04-02T06:15:16.986Z,4.50
2023-04-02T06:17:51.142Z,4.60
2023-04-02T06:20:19.860Z,4.70
2023-04-02T06:23:00.489Z,4.70
2023-04-02T06:25:45.949Z,4.90
2023-04-02T06:28:21.237Z,4.90
2023-04-02T06:30:54.741Z,5.00
2023-04-02T06:33:22.298Z,5.10
2023-04-02T06:35:51.545Z,5.20
2023-04-02T06:38:30.761Z,5.30
2023-04-02T06:41:08.374Z,5.30
2023-04-02T06:44:01.406Z,5.40
2023-04-02T06:46:52.399Z,5.40
2023-04-02T06:49:25.415Z,5.50
2023-04-02T06:52:01.056Z,5.80
2023-04-02T06:54:29.505Z,5.90
2023-04-02T06:57:00.589Z,6.00
2023-04-02T06:59:36.970Z,6.30
2023-04-02T07:02:26.699Z,6.30
2023-04-02T07:05:00.516Z,6.40
2023-04-02T07:07:27.915Z,6.20
2023-04-02T07:09:55.440Z,6.10
2023-04-02T07:12:24.865Z,6.00
2023-04-02T07:14:52.636Z,5.80
2023-04-02T07:17:21.885Z,5.90
2023-04-02T07:19:49.668Z,5.90
2023-04-02T07:22:19.703Z,6.10
2023-04-02T07:24:51.169Z,6.30
2023-04-02T07:27:18.050Z,6.30
2023-04-02T07:29:44.836Z,6.40
2023-04-02T07:32:13.214Z,6.50
2023-04-02T07:34:41.498Z,6.60
2023-04-02T07:37:12.825Z,6.50
2023-04-02T07:39:40.765Z,6.50
2023-04-02T07:42:08.039Z,6.50
2023-04-02T07:44:34.914Z,6.40
2023-04-02T07:47:01.952Z,6.60
2023-04-02T07:49:28.922Z,6.90
2023-04-02T07:51:56.196Z,6.80
2023-04-02T07:54:23.226Z,6.90
2023-04-02T07:56:50.089Z,7.20
2023-04-02T07:59:16.896Z,7.40
2023-04-02T08:01:43.778Z,7.40
2023-04-02T08:04:21.968Z,7.50
2023-04-02T08:06:50.446Z,7.60
2023-04-02T08:09:18.411Z,7.60
2023-04-02T08:11:46.566Z,7.60
2023-04-02T08:14:14.013Z,7.50
2023-04-02T08:16:59.132Z,7.50
2023-04-02T08:19:26.034Z,7.60
2023-04-02T08:21:54.349Z,7.80
2023-04-02T08:24:21.488Z,8.00
2023-04-02T08:26:49.443Z,8.10
2023-04-02T08:29:16.178Z,8.20
2023-04-02T08:31:43.014Z,8.10
2023-04-02T08:34:09.961Z,8.20
2023-04-02T08:36:39.206Z,8.70
2023-04-02T08:39:11.631Z,8.90
2023-04-02T08:41:46.125Z,8.80
2023-04-02T08:44:33.263Z,9.00
2023-04-02T08:47:06.759Z,9.30
2023-04-02T08:49:44.795Z,10.10
2023-04-02T08:52:26.939Z,10.90
2023-04-02T08:54:56.223Z,11.70
2023-04-02T09:01:03.300Z,13.00
2023-04-02T09:03:41.680Z,13.10
2023-04-02T09:06:14.299Z,13.20
2023-04-02T09:08:48.612Z,13.00
2023-04-02T09:11:17.306Z,13.20
2023-04-02T09:13:47.887Z,12.60
2023-04-02T09:16:18.314Z,11.60
2023-04-02T09:18:45.774Z,11.60
2023-04-02T09:21:28.273Z,11.80
2023-04-02T09:23:55.922Z,11.70
2023-04-02T09:26:25.406Z,11.50
2023-04-02T09:28:55.474Z,11.20
2023-04-02T09:31:36.692Z,11.60
2023-04-02T09:34:29.970Z,11.90
2023-04-02T09:36:57.827Z,11.90
2023-04-02T09:39:26.556Z,12.20
2023-04-02T09:42:04.989Z,12.10
2023-04-02T09:44:32.657Z,11.80
2023-04-02T09:47:06.234Z,11.80
2023-04-02T09:49:40.127Z,12.30
2023-04-02T09:52:21.306Z,12.40
2023-04-02T09:55:19.085Z,12.40
2023-04-02T09:57:49.047Z,11.80
2023-04-02T10:00:41.578Z,11.70
2023-04-02T10:03:25.851Z,11.60
2023-04-02T10:06:15.410Z,11.60
2023-04-02T10:08:44.735Z,11.60
2023-04-02T10:11:26.864Z,11.70
2023-04-02T10:14:01.819Z,11.60
2023-04-02T10:16:33.726Z,11.60
2023-04-02T10:19:14.536Z,11.40
2023-04-02T10:21:43.625Z,11.30
2023-04-02T10:24:16.195Z,11.40
2023-04-02T10:27:28.716Z,11.40
2023-04-02T10:30:11.090Z,11.20
2023-04-02T10:33:05.036Z,11.40
2023-04-02T10:35:40.477Z,11.20
2023-04-02T10:38:31.172Z,11.50
2023-04-02T10:41:10.816Z,11.80
2023-04-02T10:44:21.672Z,12.00
2023-04-02T10:47:06.553Z,12.00
2023-04-02T10:49:39.793Z,11.90
2023-04-02T10:52:13.585Z,11.30
2023-04-02T10:54:50.873Z,11.50
2023-04-02T10:57:40.468Z,11.60
2023-04-02T11:00:17.084Z,11.90
2023-04-02T11:03:04.332Z,11.80
2023-04-02T11:05:52.036Z,11.50
2023-04-02T11:08:47.250Z,11.80
2023-04-02T11:11:19.975Z,12.00
2023-04-02T11:14:06.024Z,12.00
2023-04-02T11:16:34.048Z,12.30
2023-04-02T11:19:29.172Z,11.80
2023-04-02T11:22:06.768Z,11.90
2023-04-02T11:24:44.017Z,11.50
2023-04-02T11:27:16.698Z,11.80
2023-04-02T11:30:07.375Z,11.90
2023-04-02T11:32:43.209Z,11.90
2023-04-02T11:35:31.799Z,11.90
2023-04-02T11:38:11.268Z,11.80
2023-04-02T11:40:58.224Z,11.90
2023-04-02T11:43:34.614Z,11.40
2023-04-02T11:46:04.585Z,11.20
2023-04-02T11:48:36.421Z,10.90
2023-04-02T11:51:32.540Z,10.70
2023-04-02T11:53:59.397Z,10.10
2023-04-02T11:56:52.887Z,9.80
2023-04-02T11:59:38.412Z,9.70
2023-04-02T12:02:27.409Z,9.50
2023-04-02T12:05:17.644Z,9.70
2023-04-02T12:07:56.750Z,9.40
2023-04-02T12:10:32.446Z,9.20
2023-04-02T12:13:01.493Z,9.10
2023-04-02T12:15:48.698Z,9.00
2023-04-02T12:18:18.272Z,9.00
2023-04-02T12:20:51.389Z,8.80
2023-04-02T12:23:33.859Z,8.90
2023-04-02T12:26:03.892Z,8.70
2023-04-02T12:28:33.791Z,8.60
2023-04-02T12:31:09.795Z,8.40
2023-04-02T12:33:39.011Z,8.40
2023-04-02T12:36:14.602Z,8.50
2023-04-02T12:38:51.269Z,8.50
2023-04-02T12:41:30.244Z,8.40
2023-04-02T12:44:01.827Z,8.30
2023-04-02T12:46:30.128Z,8.30
2023-04-02T12:49:06.137Z,8.20
2023-04-02T12:51:35.812Z,8.10
2023-04-02T12:54:03.882Z,8.10
2023-04-02T12:56:30.632Z,8.00
2023-04-02T12:58:59.425Z,8.00
2023-04-02T13:01:29.526Z,8.00
2023-04-02T13:04:04.831Z,8.10
2023-04-02T13:06:32.562Z,8.20
2023-04-02T13:09:01.124Z,8.20
2023-04-02T13:11:37.375Z,8.20
2023-04-02T13:14:08.140Z,8.30
2023-04-02T13:16:40.680Z,8.40
2023-04-02T13:19:32.233Z,8.60
2023-04-02T13:22:01.734Z,8.80
2023-04-02T13:24:33.674Z,9.10
2023-04-02T13:27:04.150Z,9.30
2023-04-02T13:29:32.968Z,9.50
2023-04-02T13:32:02.495Z,9.90
2023-04-02T13:34:30.344Z,10.30
2023-04-02T13:36:57.658Z,10.70
2023-04-02T13:39:25.385Z,11.00
2023-04-02T13:42:01.772Z,11.00
2023-04-02T13:44:31.531Z,11.00
2023-04-02T13:46:59.394Z,11.40
2023-04-02T13:49:27.494Z,11.80
2023-04-02T13:52:00.384Z,12.20
2023-04-02T13:54:48.924Z,12.60
2023-04-02T13:57:15.992Z,12.40
2023-04-02T13:59:42.891Z,12.10
2023-04-02T14:02:20.457Z,11.80
2023-04-02T14:05:00.172Z,11.50
2023-04-02T14:07:56.667Z,11.00
2023-04-02T14:10:47.923Z,10.50
2023-04-02T14:13:21.042Z,9.60
2023-04-02T14:15:57.145Z,8.90
2023-04-02T14:18:44.261Z,8.40
2023-04-02T14:21:31.204Z,8.10
2023-04-02T14:24:18.535Z,7.70
2023-04-02T14:27:10.042Z,7.50
2023-04-02T14:29:59.022Z,7.70
2023-04-02T14:32:55.758Z,8.00
2023-04-02T14:35:37.143Z,8.20
2023-04-02T14:38:30.044Z,8.30
2023-04-02T14:41:33.691Z,8.40
2023-04-02T14:44:03.974Z,8.40
2023-04-02T14:46:37.300Z,8.50
2023-04-02T14:49:24.797Z,8.60
2023-04-02T14:51:54.800Z,8.70
2023-04-02T14:54:37.833Z,8.90
2023-04-02T14:57:11.731Z,9.20
2023-04-02T14:59:44.594Z,9.60
2023-04-02T15:02:26.088Z,9.60
2023-04-02T15:05:04.181Z,9.80
2023-04-02T15:07:41.505Z,10.10
2023-04-02T15:10:30.325Z,11.00
2023-04-02T15:13:00.131Z,11.20
2023-04-02T15:15:44.582Z,11.40
2023-04-02T15:18:16.948Z,11.00
2023-04-02T15:21:06.351Z,10.60
2023-04-02T15:24:09.474Z,10.50
2023-04-02T15:27:25.443Z,10.20
2023-04-02T15:29:59.735Z,10.00
2023-04-02T15:32:32.360Z,9.90
2023-04-02T15:35:23.371Z,10.20
2023-04-02T15:38:17.505Z,10.50
2023-04-02T15:41:20.597Z,10.90
2023-04-02T15:43:56.634Z,11.60
2023-04-02T15:47:01.251Z,11.50
2023-04-02T15:49:43.455Z,10.80
2023-04-02T15:52:16.108Z,10.50
2023-04-02T15:55:03.326Z,10.40
2023-04-02T15:57:58.110Z,10.00
2023-04-02T16:00:30.895Z,9.80
2023-04-02T16:03:27.577Z,10.20
2023-04-02T16:06:19.545Z,9.70
2023-04-02T16:09:07.023Z,9.90
2023-04-02T16:11:34.330Z,9.90
2023-04-02T16:14:27.256Z,10.00
2023-04-02T16:17:10.819Z,9.80
2023-04-02T16:19:54.356Z,9.70
2023-04-02T16:22:28.309Z,9.60
2023-04-02T16:25:04.654Z,9.60
2023-04-02T16:27:33.254Z,9.50
2023-04-02T16:30:23.862Z,9.60
2023-04-02T16:33:07.206Z,9.60
2023-04-02T16:36:02.846Z,9.30
2023-04-02T16:39:09.121Z,9.10
2023-04-02T16:41:55.936Z,9.00
2023-04-02T16:44:22.660Z,8.80
2023-04-02T16:46:57.852Z,8.60
2023-04-02T16:49:42.506Z,7.90
2023-04-02T16:52:42.283Z,7.20
2023-04-02T16:55:42.800Z,7.00
2023-04-02T16:58:24.186Z,6.80
2023-04-02T17:00:57.456Z,6.80
2023-04-02T17:03:33.298Z,6.60
2023-04-02T17:06:15.334Z,6.50
2023-04-02T17:08:53.820Z,6.40
2023-04-02T17:11:26.683Z,6.10
2023-04-02T17:14:06.262Z,5.80
2023-04-02T17:16:45.392Z,5.70
2023-04-02T17:19:14.707Z,5.70
2023-04-02T17:21:52.189Z,5.50
2023-04-02T17:24:32.225Z,5.50
2023-04-02T17:27:22.751Z,5.40
2023-04-02T17:29:53.348Z,5.50
2023-04-02T17:32:29.815Z,5.40
2023-04-02T17:34:57.710Z,5.50
2023-04-02T17:37:36.464Z,5.60
2023-04-02T17:40:24.061Z,5.70
2023-04-02T17:42:58.782Z,5.70
2023-04-02T17:46:06.121Z,5.80
2023-04-02T17:48:44.717Z,5.90
2023-04-02T17:51:33.230Z,5.90
2023-04-02T17:54:27.647Z,5.90
2023-04-02T17:56:57.544Z,6.00
2023-04-02T17:59:30.664Z,6.10
2023-04-02T18:02:21.915Z,6.10
2023-04-02T18:05:32.736Z,6.20
2023-04-02T18:08:14.615Z,6.40
2023-04-02T18:11:04.291Z,6.50
2023-04-02T18:13:42.256Z,6.40
2023-04-02T18:16:15.432Z,6.40
2023-04-02T18:18:54.179Z,6.50
2023-04-02T18:21:38.802Z,6.50
2023-04-02T18:24:23.980Z,6.50
2023-04-02T18:27:12.008Z,6.40
2023-04-02T18:29:44.719Z,6.50
2023-04-02T18:32:49.624Z,6.50
2023-04-02T18:35:45.838Z,6.40
2023-04-02T18:38:26.564Z,6.30
2023-04-02T18:41:15.702Z,6.20
2023-04-02T18:43:47.918Z,6.20
2023-04-02T18:46:51.793Z,6.20
2023-04-02T18:49:32.284Z,6.10
2023-04-02T18:52:02.160Z,6.00
2023-04-02T18:54:41.790Z,6.00
2023-04-02T18:57:27.154Z,5.90
2023-04-02T19:00:16.752Z,5.90
2023-04-02T19:02:57.178Z,5.80
2023-04-02T19:05:34.962Z,5.80
2023-04-02T19:08:14.039Z,5.70
2023-04-02T19:10:45.093Z,5.70
2023-04-02T19:13:17.822Z,5.70
2023-04-02T19:15:57.533Z,5.70
2023-04-02T19:19:00.238Z,5.70
2023-04-02T19:21:33.514Z,5.60
2023-04-02T19:24:26.428Z,5.60
2023-04-02T19:27:11.959Z,5.60
2023-04-02T19:29:56.606Z,5.60
2023-04-02T19:32:51.897Z,5.60
2023-04-02T19:35:43.695Z,5.60
2023-04-02T19:38:19.460Z,5.40
2023-04-02T19:40:54.457Z,5.30
2023-04-02T19:43:21.671Z,5.30
2023-04-02T19:45:49.418Z,5.30
2023-04-02T19:48:24.371Z,5.30
2023-04-02T19:50:51.244Z,5.20
2023-04-02T19:53:18.768Z,5.20
2023-04-02T19:55:46.461Z,5.20
2023-04-02T19:58:30.314Z,5.10
2023-04-02T20:00:58.249Z,5.10
2023-04-02T20:03:25.321Z,5.10
2023-04-02T20:05:52.673Z,5.00
2023-04-02T20:08:19.713Z,4.90
2023-04-02T20:10:46.639Z,4.80
2023-04-02T20:13:13.456Z,4.80
2023-04-02T20:15:41.031Z,4.80
2023-04-02T20:18:09.474Z,4.80
2023-04-02T20:20:37.174Z,4.70
2023-04-02T20:23:04.146Z,4.60
2023-04-02T20:25:30.955Z,4.50
2023-04-02T20:27:57.886Z,4.50
2023-04-02T20:30:24.607Z,4.50
2023-04-02T20:32:51.587Z,4.40
2023-04-02T20:35:18.538Z,4.40
2023-04-02T20:37:45.724Z,4.40
2023-04-02T20:40:12.968Z,4.30
2023-04-02T20:42:39.769Z,4.30
2023-04-02T20:45:08.407Z,4.20
2023-04-02T20:47:35.346Z,4.20
2023-04-02T20:50:02.280Z,4.10
2023-04-02T20:52:30.299Z,4.10
2023-04-02T20:54:57.413Z,4.10
2023-04-02T20:57:26.116Z,4.00
2023-04-02T20:59:54.573Z,4.00
2023-04-02T21:02:21.496Z,4.00
2023-04-02T21:04:48.299Z,4.00
2023-04-02T21:07:15.521Z,4.00
2023-04-02T21:09:42.351Z,3.90
2023-04-02T21:12:09.172Z,3.90
2023-04-02T21:14:38.966Z,3.90
2023-04-02T21:17:07.436Z,3.80
2023-04-02T21:19:35.395Z,3.80
2023-04-02T21:22:03.098Z,3.70
2023-04-02T21:24:30.302Z,3.60
2023-04-02T21:26:57.031Z,3.50
2023-04-02T21:29:24.245Z,3.50
2023-04-02T21:31:51.139Z,3.40
2023-04-02T21:34:18.053Z,3.40
2023-04-02T21:36:47.009Z,3.30
2023-04-02T21:39:22.443Z,3.20
2023-04-02T21:41:51.298Z,3.10
2023-04-02T21:44:20.666Z,3.00
2023-04-02T21:46:47.868Z,3.00
2023-04-02T21:49:18.406Z,2.90
2023-04-02T21:51:47.156Z,2.80
2023-04-02T21:54:14.888Z,2.80
2023-04-02T21:56:44.222Z,2.80
2023-04-02T21:59:12.951Z,2.70
2023-04-02T22:01:51.114Z,2.50
2023-04-02T22:04:20.943Z,2.50
2023-04-02T22:06:48.694Z,2.50
2023-04-02T22:09:18.335Z,2.50
2023-04-02T22:11:47.928Z,2.50
2023-04-02T22:14:15.334Z,2.60
2023-04-02T22:16:43.110Z,2.50
2023-04-02T22:19:13.223Z,2.40
2023-04-02T22:21:41.377Z,2.30
2023-04-02T22:24:12.528Z,2.20
2023-04-02T22:26:40.654Z,2.10
2023-04-02T22:29:07.947Z,2.10
2023-04-02T22:31:35.322Z,2.00
2023-04-02T22:34:03.268Z,2.00
2023-04-02T22:36:30.392Z,1.90
2023-04-02T22:38:58.804Z,1.90
2023-04-02T22:41:28.085Z,1.80
2023-04-02T22:43:56.410Z,1.80
2023-04-02T22:46:24.354Z,1.80
2023-04-02T22:48:51.626Z,1.70
2023-04-02T22:51:20.794Z,1.80
2023-04-02T22:53:48.743Z,1.70
2023-04-02T22:56:22.070Z,1.80
2023-04-02T22:58:49.828Z,1.70
2023-04-02T23:01:23.583Z,1.70
2023-04-02T23:03:52.289Z,1.60
2023-04-02T23:06:19.126Z,1.60
2023-04-02T23:08:46.995Z,1.50
2023-04-02T23:11:21.867Z,1.50
2023-04-02T23:13:51.332Z,1.50
2023-04-02T23:16:18.652Z,1.50
2023-04-02T23:18:48.052Z,1.40
2023-04-02T23:21:16.174Z,1.40
2023-04-02T23:23:43.090Z,1.40
2023-04-02T23:26:13.150Z,1.50
2023-04-02T23:28:40.889Z,1.50
2023-04-02T23:31:11.804Z,1.40
2023-04-02T23:33:38.813Z,1.30
2023-04-02T23:36:24.552Z,1.20
2023-04-02T23:38:55.293Z,1.20
2023-04-02T23:41:23.715Z,1.20
2023-04-02T23:43:51.112Z,1.20
2023-04-02T23:46:18.079Z,1.20
2023-04-02T23:48:45.939Z,1.20
2023-04-02T23:51:13.549Z,1.20
2023-04-02T23:53:40.364Z,1.30
2023-04-02T23:56:07.366Z,1.30
2023-04-02T23:58:34.168Z,1.30
